Webcam 1 more information Webcam 1


Webcam 2 more information Webcam 2


avvertimento per Temporali more information blitzortung!


altri nostri siti meteo:

Pomeziameteo 1Sito sul meteo

Pomeziameteo DashboardSito sul meteo

Caput FrigorisSito sul meteo

BarcellonameteoSito sul meteo

MeteoipassiSito sul meteo

ViterbometeoSito sul meteo

MeteotortoretoSito sul meteo

Stazione LineameteoSito sul meteo



Temporali Inizio validita dal: 18-08-2018 11:00 Fino: 18:59 Allerta per: Temporali Livello: Giallo info button

Report METAR

   
LIBP - Pescara
Dati ricevuti: 18-08-2018 08:50
Sereno  
Sereno  
   Vento: SW 9.3 km/h
Vento: SW 9.3 km/h
Temperatura: 24°C
P.to Rugiada: 19°C
Umidita: 74%
Barometro: 1016 hPa
Visibilita: oltre 10 km
dettagli cloud: Sereno
LIBP 180650Z 23005KT CAVOK 24/19 Q1016
LIRZ - Perugia
Dati ricevuti: 18-08-2018 08:50
Sereno  
Sereno  
   Vento: NO 7.4 km/h
Vento: NO 7.4 km/h
Temperatura: 22°C
P.to Rugiada: 17°C
Umidita: 73%
Barometro: 1017 hPa
Visibilita: oltre 10 km
dettagli cloud: Sereno
LIRZ 180650Z 32004KT 290V360 CAVOK 22/17 Q1017
LIQN - Rieti
Dati ricevuti: 17-08-2018 19:50
DATI Obsoleti
Sereno  
Sereno  
   Vento: SE 9.3 km/h
Vento: SE 9.3 km/h
Temperatura: 22°C
P.to Rugiada: 18°C
Umidita: 78%
Barometro: 1015 hPa
Visibilita: oltre 10 km
dettagli cloud: Sereno
LIQN 171750Z 12005KT CAVOK 22/18 Q1015
LIPY - Falconara
Dati ricevuti: 18-08-2018 08:50
Sereno  
Sereno  
   Vento: S 5.6 km/h
Vento: S 5.6 km/h
Temperatura: 25°C
P.to Rugiada: 17°C
Umidita: 61%
Barometro: 1016 hPa
Visibilita: oltre 10 km
dettagli cloud: Sereno
LIPY 180650Z 21003KT 110V260 CAVOK 25/17 Q1016
  

Script sviluppato da  Saratoga-weather.org Adattato per il modello da  Weerstation Leuven

Potete trovare le nostre info meteo anche a:

Weather Underground

AWEKAS

Citizen Weather Observer Program (CWOP)

HAMweather, WeatherForYou, PWS Weather

Strumentazione usata:

Stazione meteo
Oregon 928

Programma gestore dati meteo
WVIEW

Server per i dati meteo
Pc-WDS5

Oregon 928

WVIEW

Pc-WDS5